<?xml version="1.0" encoding="UTF-8" standalone="no" ?><gpx xmlns="http://www.topografix.com/GPX/1/1" xmlns:gpxx="http://www.garmin.com/xmlschemas/GpxExtensions/v3" xmlns:gpxtpx="http://www.garmin.com/xmlschemas/TrackPointExtension/v1" creator="Foretrex 301" version="1.1" xmlns:xsi="http://www.w3.org/2001/XMLSchema-instance" xsi:schemaLocation="http://www.topografix.com/GPX/1/1 http://www.topografix.com/GPX/1/1/gpx.xsd http://www.garmin.com/xmlschemas/GpxExtensions/v3 http://www.garmin.com/xmlschemas/GpxExtensions/v3/GpxExtensionsv3.xsd"><metadata><link href="http://www.garmin.com"><text>Garmin International</text></link><time>2010-10-06T17:31:22Z</time></metadata><trk><name>ACTIVE LOG: 06 OCT 2010 09:55</name><trkseg><trkpt lat="51.837040" lon="-1.954292"><ele>170.77</ele><time>2010-10-06T08:55:39Z</time></trkpt><trkpt lat="51.837111" lon="-1.954281"><ele>164.52</ele><time>2010-10-06T08:56:07Z</time></trkpt><trkpt lat="51.837272" lon="-1.954330"><ele>155.39</ele><time>2010-10-06T08:56:48Z</time></trkpt><trkpt lat="51.837371" lon="-1.954360"><ele>146.26</ele><time>2010-10-06T08:57:09Z</time></trkpt><trkpt lat="51.837361" lon="-1.954373"><ele>145.30</ele><time>2010-10-06T08:57:32Z</time></trkpt><trkpt lat="51.837246" lon="-1.954517"><ele>138.57</ele><time>2010-10-06T08:59:41Z</time></trkpt><trkpt lat="51.837227" lon="-1.954447"><ele>140.97</ele><time>2010-10-06T09:00:21Z</time></trkpt><trkpt lat="51.837214" lon="-1.954361"><ele>148.18</ele><time>2010-10-06T09:00:40Z</time></trkpt><trkpt lat="51.837151" lon="-1.954334"><ele>155.87</ele><time>2010-10-06T09:03:31Z</time></trkpt><trkpt lat="51.837137" lon="-1.954425"><ele>159.24</ele><time>2010-10-06T09:04:01Z</time></trkpt><trkpt lat="51.837146" lon="-1.954610"><ele>158.27</ele><time>2010-10-06T09:04:14Z</time></trkpt><trkpt lat="51.837151" lon="-1.954615"><ele>158.27</ele><time>2010-10-06T09:04:15Z</time></trkpt><trkpt lat="51.837157" lon="-1.954640"><ele>158.27</ele><time>2010-10-06T09:04:18Z</time></trkpt><trkpt lat="51.837158" lon="-1.954778"><ele>159.24</ele><time>2010-10-06T09:04:27Z</time></trkpt><trkpt lat="51.837140" lon="-1.954833"><ele>158.75</ele><time>2010-10-06T09:04:31Z</time></trkpt><trkpt lat="51.837130" lon="-1.955007"><ele>156.83</ele><time>2010-10-06T09:04:42Z</time></trkpt><trkpt lat="51.837239" lon="-1.955147"><ele>154.43</ele><time>2010-10-06T09:04:54Z</time></trkpt><trkpt lat="51.837218" lon="-1.955188"><ele>154.43</ele><time>2010-10-06T09:04:58Z</time></trkpt><trkpt lat="51.837143" lon="-1.955157"><ele>153.47</ele><time>2010-10-06T09:05:04Z</time></trkpt><trkpt lat="51.837078" lon="-1.955183"><ele>153.47</ele><time>2010-10-06T09:05:10Z</time></trkpt><trkpt lat="51.837184" lon="-1.955407"><ele>153.47</ele><time>2010-10-06T09:05:24Z</time></trkpt><trkpt lat="51.837224" lon="-1.955473"><ele>152.99</ele><time>2010-10-06T09:05:28Z</time></trkpt><trkpt lat="51.837265" lon="-1.955531"><ele>152.51</ele><time>2010-10-06T09:05:32Z</time></trkpt><trkpt lat="51.837363" lon="-1.955695"><ele>150.58</ele><time>2010-10-06T09:05:43Z</time></trkpt><trkpt lat="51.837394" lon="-1.955764"><ele>150.58</ele><time>2010-10-06T09:05:47Z</time></trkpt><trkpt lat="51.837468" lon="-1.955938"><ele>157.31</ele><time>2010-10-06T09:06:00Z</time></trkpt><trkpt lat="51.837554" lon="-1.956119"><ele>164.04</ele><time>2010-10-06T09:06:18Z</time></trkpt><trkpt lat="51.837563" lon="-1.956150"><ele>164.04</ele><time>2010-10-06T09:06:20Z</time></trkpt><trkpt lat="51.837635" lon="-1.956324"><ele>166.45</ele><time>2010-10-06T09:06:33Z</time></trkpt><trkpt lat="51.837726" lon="-1.956389"><ele>168.85</ele><time>2010-10-06T09:06:47Z</time></trkpt><trkpt lat="51.837848" lon="-1.956496"><ele>170.29</ele><time>2010-10-06T09:07:00Z</time></trkpt><trkpt lat="51.838065" lon="-1.956505"><ele>172.21</ele><time>2010-10-06T09:07:20Z</time></trkpt><trkpt lat="51.838238" lon="-1.956489"><ele>169.81</ele><time>2010-10-06T09:07:34Z</time></trkpt><trkpt lat="51.838250" lon="-1.956491"><ele>169.81</ele><time>2010-10-06T09:07:35Z</time></trkpt><trkpt lat="51.838433" lon="-1.956486"><ele>167.41</ele><time>2010-10-06T09:07:49Z</time></trkpt><trkpt lat="51.838622" lon="-1.956527"><ele>165.48</ele><time>2010-10-06T09:08:05Z</time></trkpt><trkpt lat="51.838650" lon="-1.956545"><ele>165.48</ele><time>2010-10-06T09:08:09Z</time></trkpt><trkpt lat="51.838780" lon="-1.956572"><ele>165.48</ele><time>2010-10-06T09:08:22Z</time></trkpt><trkpt lat="51.838934" lon="-1.956705"><ele>165.00</ele><time>2010-10-06T09:08:38Z</time></trkpt><trkpt lat="51.839028" lon="-1.956744"><ele>165.96</ele><time>2010-10-06T09:08:47Z</time></trkpt><trkpt lat="51.839138" lon="-1.956792"><ele>170.77</ele><time>2010-10-06T09:09:03Z</time></trkpt><trkpt lat="51.839245" lon="-1.956760"><ele>173.66</ele><time>2010-10-06T09:09:15Z</time></trkpt><trkpt lat="51.839358" lon="-1.956652"><ele>174.62</ele><time>2010-10-06T09:09:23Z</time></trkpt><trkpt lat="51.839441" lon="-1.956577"><ele>174.62</ele><time>2010-10-06T09:09:31Z</time></trkpt><trkpt lat="51.839544" lon="-1.956488"><ele>176.06</ele><time>2010-10-06T09:09:39Z</time></trkpt><trkpt lat="51.839687" lon="-1.956358"><ele>176.06</ele><time>2010-10-06T09:09:52Z</time></trkpt><trkpt lat="51.839780" lon="-1.956294"><ele>172.21</ele><time>2010-10-06T09:10:06Z</time></trkpt><trkpt lat="51.839932" lon="-1.956336"><ele>168.85</ele><time>2010-10-06T09:10:22Z</time></trkpt><trkpt lat="51.840079" lon="-1.956394"><ele>168.85</ele><time>2010-10-06T09:10:36Z</time></trkpt><trkpt lat="51.840182" lon="-1.956439"><ele>168.85</ele><time>2010-10-06T09:10:49Z</time></trkpt><trkpt lat="51.840286" lon="-1.956530"><ele>170.29</ele><time>2010-10-06T09:11:03Z</time></trkpt><trkpt lat="51.840481" lon="-1.956650"><ele>169.33</ele><time>2010-10-06T09:11:21Z</time></trkpt><trkpt lat="51.840633" lon="-1.956590"><ele>166.93</ele><time>2010-10-06T09:11:35Z</time></trkpt><trkpt lat="51.840668" lon="-1.956529"><ele>166.45</ele><time>2010-10-06T09:11:40Z</time></trkpt><trkpt lat="51.840773" lon="-1.956379"><ele>164.52</ele><time>2010-10-06T09:11:54Z</time></trkpt><trkpt lat="51.840889" lon="-1.956169"><ele>163.56</ele><time>2010-10-06T09:12:11Z</time></trkpt><trkpt lat="51.840929" lon="-1.956088"><ele>164.52</ele><time>2010-10-06T09:12:25Z</time></trkpt><trkpt lat="51.840946" lon="-1.956012"><ele>164.04</ele><time>2010-10-06T09:12:37Z</time></trkpt><trkpt lat="51.840951" lon="-1.955984"><ele>163.56</ele><time>2010-10-06T09:12:40Z</time></trkpt><trkpt lat="51.840960" lon="-1.955916"><ele>164.52</ele><time>2010-10-06T09:12:44Z</time></trkpt><trkpt lat="51.841085" lon="-1.955637"><ele>163.56</ele><time>2010-10-06T09:13:02Z</time></trkpt><trkpt lat="51.841125" lon="-1.955430"><ele>164.52</ele><time>2010-10-06T09:13:16Z</time></trkpt><trkpt lat="51.841128" lon="-1.955414"><ele>164.52</ele><time>2010-10-06T09:13:17Z</time></trkpt><trkpt lat="51.841169" lon="-1.955339"><ele>163.56</ele><time>2010-10-06T09:13:29Z</time></trkpt><trkpt lat="51.841204" lon="-1.955176"><ele>162.12</ele><time>2010-10-06T09:13:45Z</time></trkpt><trkpt lat="51.841224" lon="-1.954974"><ele>161.64</ele><time>2010-10-06T09:13:59Z</time></trkpt><trkpt lat="51.841245" lon="-1.954866"><ele>161.16</ele><time>2010-10-06T09:14:19Z</time></trkpt><trkpt lat="51.841242" lon="-1.954884"><ele>165.48</ele><time>2010-10-06T09:14:56Z</time></trkpt><trkpt lat="51.841259" lon="-1.954865"><ele>166.93</ele><time>2010-10-06T09:15:13Z</time></trkpt><trkpt lat="51.841252" lon="-1.954762"><ele>167.41</ele><time>2010-10-06T09:15:38Z</time></trkpt><trkpt lat="51.841250" lon="-1.954699"><ele>168.37</ele><time>2010-10-06T09:16:03Z</time></trkpt><trkpt lat="51.841265" lon="-1.954493"><ele>169.33</ele><time>2010-10-06T09:16:24Z</time></trkpt><trkpt lat="51.841175" lon="-1.954298"><ele>169.81</ele><time>2010-10-06T09:16:41Z</time></trkpt><trkpt lat="51.841075" lon="-1.954153"><ele>171.25</ele><time>2010-10-06T09:16:54Z</time></trkpt><trkpt lat="51.841059" lon="-1.954052"><ele>172.21</ele><time>2010-10-06T09:17:02Z</time></trkpt><trkpt lat="51.840975" lon="-1.953820"><ele>174.62</ele><time>2010-10-06T09:17:18Z</time></trkpt><trkpt lat="51.840883" lon="-1.953609"><ele>176.06</ele><time>2010-10-06T09:17:34Z</time></trkpt><trkpt lat="51.840775" lon="-1.953376"><ele>171.25</ele><time>2010-10-06T09:17:49Z</time></trkpt><trkpt lat="51.840710" lon="-1.953293"><ele>169.81</ele><time>2010-10-06T09:18:04Z</time></trkpt><trkpt lat="51.840708" lon="-1.953278"><ele>169.33</ele><time>2010-10-06T09:18:09Z</time></trkpt><trkpt lat="51.840638" lon="-1.953258"><ele>167.41</ele><time>2010-10-06T09:18:26Z</time></trkpt><trkpt lat="51.840526" lon="-1.953157"><ele>164.52</ele><time>2010-10-06T09:18:39Z</time></trkpt><trkpt lat="51.840356" lon="-1.953021"><ele>160.68</ele><time>2010-10-06T09:18:57Z</time></trkpt><trkpt lat="51.840188" lon="-1.952819"><ele>157.31</ele><time>2010-10-06T09:19:15Z</time></trkpt><trkpt lat="51.839997" lon="-1.952605"><ele>154.43</ele><time>2010-10-06T09:19:35Z</time></trkpt><trkpt lat="51.839823" lon="-1.952412"><ele>153.95</ele><time>2010-10-06T09:19:53Z</time></trkpt><trkpt lat="51.839686" lon="-1.952296"><ele>152.99</ele><time>2010-10-06T09:20:11Z</time></trkpt><trkpt lat="51.839652" lon="-1.952242"><ele>152.51</ele><time>2010-10-06T09:20:26Z</time></trkpt><trkpt lat="51.839646" lon="-1.952248"><ele>151.06</ele><time>2010-10-06T09:20:35Z</time></trkpt><trkpt lat="51.839619" lon="-1.952235"><ele>151.54</ele><time>2010-10-06T09:20:39Z</time></trkpt><trkpt lat="51.839518" lon="-1.952173"><ele>151.54</ele><time>2010-10-06T09:20:54Z</time></trkpt><trkpt lat="51.839521" lon="-1.952173"><ele>151.54</ele><time>2010-10-06T09:21:01Z</time></trkpt><trkpt lat="51.839444" lon="-1.951837"><ele>151.54</ele><time>2010-10-06T09:21:24Z</time></trkpt><trkpt lat="51.839372" lon="-1.951472"><ele>149.14</ele><time>2010-10-06T09:21:44Z</time></trkpt><trkpt lat="51.839280" lon="-1.951104"><ele>149.62</ele><time>2010-10-06T09:22:04Z</time></trkpt><trkpt lat="51.839186" lon="-1.950744"><ele>148.18</ele><time>2010-10-06T09:22:23Z</time></trkpt><trkpt lat="51.839109" lon="-1.950382"><ele>148.18</ele><time>2010-10-06T09:22:42Z</time></trkpt><trkpt lat="51.839041" lon="-1.950087"><ele>148.18</ele><time>2010-10-06T09:22:59Z</time></trkpt><trkpt lat="51.839024" lon="-1.949929"><ele>148.66</ele><time>2010-10-06T09:23:12Z</time></trkpt><trkpt lat="51.839036" lon="-1.949877"><ele>149.14</ele><time>2010-10-06T09:23:26Z</time></trkpt><trkpt lat="51.839029" lon="-1.949801"><ele>149.62</ele><time>2010-10-06T09:23:37Z</time></trkpt><trkpt lat="51.838996" lon="-1.949692"><ele>148.66</ele><time>2010-10-06T09:23:49Z</time></trkpt><trkpt lat="51.838968" lon="-1.949733"><ele>148.66</ele><time>2010-10-06T09:24:03Z</time></trkpt><trkpt lat="51.838965" lon="-1.949727"><ele>147.22</ele><time>2010-10-06T09:24:15Z</time></trkpt><trkpt lat="51.838967" lon="-1.949711"><ele>146.26</ele><time>2010-10-06T09:24:17Z</time></trkpt><trkpt lat="51.838906" lon="-1.949424"><ele>147.22</ele><time>2010-10-06T09:24:35Z</time></trkpt><trkpt lat="51.838871" lon="-1.949375"><ele>148.66</ele><time>2010-10-06T09:24:51Z</time></trkpt><trkpt lat="51.838818" lon="-1.949014"><ele>150.58</ele><time>2010-10-06T09:25:08Z</time></trkpt><trkpt lat="51.838841" lon="-1.948662"><ele>151.06</ele><time>2010-10-06T09:25:27Z</time></trkpt><trkpt lat="51.838882" lon="-1.948194"><ele>150.58</ele><time>2010-10-06T09:25:50Z</time></trkpt><trkpt lat="51.838886" lon="-1.948153"><ele>150.10</ele><time>2010-10-06T09:25:52Z</time></trkpt><trkpt lat="51.838926" lon="-1.948045"><ele>150.58</ele><time>2010-10-06T09:25:59Z</time></trkpt><trkpt lat="51.838960" lon="-1.947924"><ele>148.66</ele><time>2010-10-06T09:26:15Z</time></trkpt><trkpt lat="51.838967" lon="-1.947856"><ele>149.14</ele><time>2010-10-06T09:26:19Z</time></trkpt><trkpt lat="51.838991" lon="-1.947669"><ele>148.66</ele><time>2010-10-06T09:26:34Z</time></trkpt><trkpt lat="51.839011" lon="-1.947519"><ele>149.14</ele><time>2010-10-06T09:26:56Z</time></trkpt><trkpt lat="51.839026" lon="-1.947424"><ele>149.14</ele><time>2010-10-06T09:27:11Z</time></trkpt><trkpt lat="51.839031" lon="-1.947420"><ele>149.62</ele><time>2010-10-06T09:27:35Z</time></trkpt><trkpt lat="51.839001" lon="-1.947408"><ele>151.54</ele><time>2010-10-06T09:28:03Z</time></trkpt><trkpt lat="51.838972" lon="-1.947382"><ele>151.06</ele><time>2010-10-06T09:28:39Z</time></trkpt><trkpt lat="51.838944" lon="-1.947377"><ele>151.06</ele><time>2010-10-06T09:28:45Z</time></trkpt><trkpt lat="51.838921" lon="-1.947370"><ele>151.06</ele><time>2010-10-06T09:28:49Z</time></trkpt><trkpt lat="51.838819" lon="-1.947414"><ele>152.99</ele><time>2010-10-06T09:29:02Z</time></trkpt><trkpt lat="51.838698" lon="-1.947413"><ele>152.51</ele><time>2010-10-06T09:29:19Z</time></trkpt><trkpt lat="51.838591" lon="-1.947418"><ele>152.03</ele><time>2010-10-06T09:29:30Z</time></trkpt><trkpt lat="51.838432" lon="-1.947570"><ele>153.95</ele><time>2010-10-06T09:29:47Z</time></trkpt><trkpt lat="51.838370" lon="-1.947636"><ele>155.39</ele><time>2010-10-06T09:29:59Z</time></trkpt><trkpt lat="51.838278" lon="-1.947711"><ele>154.91</ele><time>2010-10-06T09:30:13Z</time></trkpt><trkpt lat="51.838202" lon="-1.947795"><ele>153.95</ele><time>2010-10-06T09:30:22Z</time></trkpt><trkpt lat="51.838074" lon="-1.948020"><ele>153.95</ele><time>2010-10-06T09:30:39Z</time></trkpt><trkpt lat="51.837916" lon="-1.948166"><ele>155.39</ele><time>2010-10-06T09:30:56Z</time></trkpt><trkpt lat="51.837739" lon="-1.948374"><ele>157.79</ele><time>2010-10-06T09:31:15Z</time></trkpt><trkpt lat="51.837699" lon="-1.948429"><ele>157.31</ele><time>2010-10-06T09:31:20Z</time></trkpt><trkpt lat="51.837678" lon="-1.948501"><ele>153.47</ele><time>2010-10-06T09:31:36Z</time></trkpt><trkpt lat="51.837673" lon="-1.948518"><ele>153.47</ele><time>2010-10-06T09:32:16Z</time></trkpt><trkpt lat="51.837617" lon="-1.948660"><ele>153.95</ele><time>2010-10-06T09:32:32Z</time></trkpt><trkpt lat="51.837558" lon="-1.948711"><ele>151.54</ele><time>2010-10-06T09:32:37Z</time></trkpt><trkpt lat="51.837437" lon="-1.948860"><ele>157.31</ele><time>2010-10-06T09:32:51Z</time></trkpt><trkpt lat="51.837218" lon="-1.949112"><ele>159.72</ele><time>2010-10-06T09:33:11Z</time></trkpt><trkpt lat="51.837209" lon="-1.949127"><ele>159.72</ele><time>2010-10-06T09:33:12Z</time></trkpt><trkpt lat="51.837170" lon="-1.949207"><ele>159.72</ele><time>2010-10-06T09:33:17Z</time></trkpt><trkpt lat="51.837020" lon="-1.949512"><ele>161.64</ele><time>2010-10-06T09:33:36Z</time></trkpt><trkpt lat="51.837000" lon="-1.949572"><ele>159.24</ele><time>2010-10-06T09:33:53Z</time></trkpt><trkpt lat="51.836981" lon="-1.949723"><ele>156.35</ele><time>2010-10-06T09:34:07Z</time></trkpt><trkpt lat="51.836942" lon="-1.949916"><ele>156.83</ele><time>2010-10-06T09:34:20Z</time></trkpt><trkpt lat="51.836903" lon="-1.950145"><ele>156.83</ele><time>2010-10-06T09:34:35Z</time></trkpt><trkpt lat="51.836869" lon="-1.950440"><ele>155.39</ele><time>2010-10-06T09:34:52Z</time></trkpt><trkpt lat="51.836829" lon="-1.950708"><ele>154.91</ele><time>2010-10-06T09:35:09Z</time></trkpt><trkpt lat="51.836802" lon="-1.950902"><ele>153.95</ele><time>2010-10-06T09:35:23Z</time></trkpt><trkpt lat="51.836787" lon="-1.951150"><ele>155.87</ele><time>2010-10-06T09:35:39Z</time></trkpt><trkpt lat="51.836775" lon="-1.951359"><ele>154.91</ele><time>2010-10-06T09:35:50Z</time></trkpt><trkpt lat="51.836720" lon="-1.951640"><ele>152.51</ele><time>2010-10-06T09:36:06Z</time></trkpt><trkpt lat="51.836663" lon="-1.951763"><ele>151.54</ele><time>2010-10-06T09:36:21Z</time></trkpt><trkpt lat="51.836646" lon="-1.951729"><ele>152.03</ele><time>2010-10-06T09:36:41Z</time></trkpt><trkpt lat="51.836635" lon="-1.951724"><ele>152.51</ele><time>2010-10-06T09:36:47Z</time></trkpt><trkpt lat="51.836624" lon="-1.951708"><ele>153.47</ele><time>2010-10-06T09:36:58Z</time></trkpt><trkpt lat="51.836627" lon="-1.951719"><ele>153.95</ele><time>2010-10-06T09:37:16Z</time></trkpt><trkpt lat="51.836645" lon="-1.951737"><ele>153.95</ele><time>2010-10-06T09:37:19Z</time></trkpt><trkpt lat="51.836682" lon="-1.951719"><ele>154.43</ele><time>2010-10-06T09:37:35Z</time></trkpt><trkpt lat="51.836627" lon="-1.951745"><ele>155.87</ele><time>2010-10-06T09:38:08Z</time></trkpt><trkpt lat="51.836616" lon="-1.951719"><ele>155.87</ele><time>2010-10-06T09:38:12Z</time></trkpt><trkpt lat="51.836484" lon="-1.951604"><ele>158.75</ele><time>2010-10-06T09:38:26Z</time></trkpt><trkpt lat="51.836384" lon="-1.951547"><ele>159.72</ele><time>2010-10-06T09:38:40Z</time></trkpt><trkpt lat="51.836293" lon="-1.951502"><ele>160.20</ele><time>2010-10-06T09:38:52Z</time></trkpt><trkpt lat="51.836218" lon="-1.951476"><ele>160.68</ele><time>2010-10-06T09:39:05Z</time></trkpt><trkpt lat="51.836101" lon="-1.951436"><ele>162.60</ele><time>2010-10-06T09:39:19Z</time></trkpt><trkpt lat="51.836028" lon="-1.951400"><ele>165.48</ele><time>2010-10-06T09:39:41Z</time></trkpt><trkpt lat="51.836028" lon="-1.951404"><ele>165.48</ele><time>2010-10-06T09:39:48Z</time></trkpt><trkpt lat="51.835925" lon="-1.951544"><ele>166.93</ele><time>2010-10-06T09:40:02Z</time></trkpt><trkpt lat="51.835918" lon="-1.951555"><ele>166.93</ele><time>2010-10-06T09:40:03Z</time></trkpt><trkpt lat="51.835873" lon="-1.951683"><ele>168.85</ele><time>2010-10-06T09:40:17Z</time></trkpt><trkpt lat="51.835835" lon="-1.951812"><ele>169.81</ele><time>2010-10-06T09:40:26Z</time></trkpt><trkpt lat="51.835748" lon="-1.952040"><ele>172.69</ele><time>2010-10-06T09:40:42Z</time></trkpt><trkpt lat="51.835639" lon="-1.952261"><ele>171.25</ele><time>2010-10-06T09:40:58Z</time></trkpt><trkpt lat="51.835538" lon="-1.952424"><ele>169.81</ele><time>2010-10-06T09:41:14Z</time></trkpt><trkpt lat="51.835390" lon="-1.952496"><ele>167.41</ele><time>2010-10-06T09:41:30Z</time></trkpt><trkpt lat="51.835268" lon="-1.952497"><ele>166.93</ele><time>2010-10-06T09:41:45Z</time></trkpt><trkpt lat="51.835238" lon="-1.952496"><ele>166.45</ele><time>2010-10-06T09:41:48Z</time></trkpt><trkpt lat="51.835109" lon="-1.952474"><ele>164.04</ele><time>2010-10-06T09:42:06Z</time></trkpt><trkpt lat="51.834976" lon="-1.952396"><ele>163.08</ele><time>2010-10-06T09:42:24Z</time></trkpt><trkpt lat="51.834887" lon="-1.952284"><ele>163.08</ele><time>2010-10-06T09:42:39Z</time></trkpt><trkpt lat="51.834801" lon="-1.952231"><ele>162.12</ele><time>2010-10-06T09:42:56Z</time></trkpt><trkpt lat="51.834664" lon="-1.952145"><ele>161.64</ele><time>2010-10-06T09:43:08Z</time></trkpt><trkpt lat="51.834512" lon="-1.952017"><ele>164.04</ele><time>2010-10-06T09:43:28Z</time></trkpt><trkpt lat="51.834328" lon="-1.951844"><ele>163.56</ele><time>2010-10-06T09:43:47Z</time></trkpt><trkpt lat="51.834167" lon="-1.951728"><ele>160.20</ele><time>2010-10-06T09:44:01Z</time></trkpt><trkpt lat="51.834028" lon="-1.951678"><ele>159.72</ele><time>2010-10-06T09:44:13Z</time></trkpt><trkpt lat="51.833989" lon="-1.951676"><ele>159.72</ele><time>2010-10-06T09:44:16Z</time></trkpt><trkpt lat="51.833862" lon="-1.951714"><ele>160.20</ele><time>2010-10-06T09:44:26Z</time></trkpt><trkpt lat="51.833700" lon="-1.951700"><ele>160.20</ele><time>2010-10-06T09:44:40Z</time></trkpt><trkpt lat="51.833690" lon="-1.951703"><ele>159.72</ele><time>2010-10-06T09:44:41Z</time></trkpt><trkpt lat="51.833548" lon="-1.951670"><ele>156.83</ele><time>2010-10-06T09:44:58Z</time></trkpt><trkpt lat="51.833425" lon="-1.951544"><ele>156.83</ele><time>2010-10-06T09:45:15Z</time></trkpt><trkpt lat="51.833296" lon="-1.951527"><ele>160.68</ele><time>2010-10-06T09:45:29Z</time></trkpt><trkpt lat="51.833109" lon="-1.951382"><ele>162.12</ele><time>2010-10-06T09:45:44Z</time></trkpt><trkpt lat="51.832992" lon="-1.951246"><ele>158.75</ele><time>2010-10-06T09:45:58Z</time></trkpt><trkpt lat="51.832769" lon="-1.951127"><ele>154.43</ele><time>2010-10-06T09:46:19Z</time></trkpt><trkpt lat="51.832582" lon="-1.951008"><ele>152.51</ele><time>2010-10-06T09:46:39Z</time></trkpt><trkpt lat="51.832465" lon="-1.950873"><ele>151.54</ele><time>2010-10-06T09:46:52Z</time></trkpt><trkpt lat="51.832327" lon="-1.950715"><ele>148.18</ele><time>2010-10-06T09:47:06Z</time></trkpt><trkpt lat="51.832182" lon="-1.950523"><ele>147.70</ele><time>2010-10-06T09:47:22Z</time></trkpt><trkpt lat="51.832103" lon="-1.950453"><ele>147.22</ele><time>2010-10-06T09:47:38Z</time></trkpt><trkpt lat="51.832006" lon="-1.950363"><ele>149.14</ele><time>2010-10-06T09:47:56Z</time></trkpt><trkpt lat="51.831895" lon="-1.950188"><ele>151.54</ele><time>2010-10-06T09:48:16Z</time></trkpt><trkpt lat="51.831770" lon="-1.950013"><ele>151.54</ele><time>2010-10-06T09:48:33Z</time></trkpt><trkpt lat="51.831547" lon="-1.949825"><ele>149.14</ele><time>2010-10-06T09:48:51Z</time></trkpt><trkpt lat="51.831412" lon="-1.949632"><ele>147.70</ele><time>2010-10-06T09:49:08Z</time></trkpt><trkpt lat="51.831296" lon="-1.949467"><ele>147.70</ele><time>2010-10-06T09:49:22Z</time></trkpt><trkpt lat="51.831203" lon="-1.949286"><ele>148.66</ele><time>2010-10-06T09:49:35Z</time></trkpt><trkpt lat="51.831152" lon="-1.949143"><ele>149.62</ele><time>2010-10-06T09:49:48Z</time></trkpt><trkpt lat="51.831041" lon="-1.949060"><ele>151.54</ele><time>2010-10-06T09:49:59Z</time></trkpt><trkpt lat="51.830950" lon="-1.949032"><ele>152.51</ele><time>2010-10-06T09:50:06Z</time></trkpt><trkpt lat="51.830802" lon="-1.948884"><ele>152.03</ele><time>2010-10-06T09:50:23Z</time></trkpt><trkpt lat="51.830717" lon="-1.948762"><ele>149.62</ele><time>2010-10-06T09:50:38Z</time></trkpt><trkpt lat="51.830674" lon="-1.948728"><ele>149.62</ele><time>2010-10-06T09:50:43Z</time></trkpt><trkpt lat="51.830587" lon="-1.948639"><ele>148.66</ele><time>2010-10-06T09:50:52Z</time></trkpt><trkpt lat="51.830559" lon="-1.948598"><ele>149.14</ele><time>2010-10-06T09:50:56Z</time></trkpt><trkpt lat="51.830459" lon="-1.948440"><ele>150.58</ele><time>2010-10-06T09:51:13Z</time></trkpt><trkpt lat="51.830431" lon="-1.948387"><ele>151.54</ele><time>2010-10-06T09:51:17Z</time></trkpt><trkpt lat="51.830400" lon="-1.948298"><ele>152.51</ele><time>2010-10-06T09:51:23Z</time></trkpt><trkpt lat="51.830390" lon="-1.948232"><ele>153.47</ele><time>2010-10-06T09:51:28Z</time></trkpt><trkpt lat="51.830312" lon="-1.948120"><ele>152.99</ele><time>2010-10-06T09:51:38Z</time></trkpt><trkpt lat="51.830257" lon="-1.948010"><ele>152.03</ele><time>2010-10-06T09:51:45Z</time></trkpt><trkpt lat="51.830162" lon="-1.947884"><ele>150.10</ele><time>2010-10-06T09:51:58Z</time></trkpt><trkpt lat="51.830089" lon="-1.947737"><ele>151.06</ele><time>2010-10-06T09:52:09Z</time></trkpt><trkpt lat="51.830017" lon="-1.947654"><ele>152.99</ele><time>2010-10-06T09:52:24Z</time></trkpt><trkpt lat="51.830014" lon="-1.947641"><ele>153.95</ele><time>2010-10-06T09:52:56Z</time></trkpt><trkpt lat="51.829997" lon="-1.947621"><ele>153.47</ele><time>2010-10-06T09:53:00Z</time></trkpt><trkpt lat="51.829884" lon="-1.947589"><ele>154.43</ele><time>2010-10-06T09:53:08Z</time></trkpt><trkpt lat="51.829820" lon="-1.947584"><ele>154.43</ele><time>2010-10-06T09:53:12Z</time></trkpt><trkpt lat="51.829613" lon="-1.947739"><ele>151.54</ele><time>2010-10-06T09:53:31Z</time></trkpt><trkpt lat="51.829459" lon="-1.947920"><ele>150.10</ele><time>2010-10-06T09:53:48Z</time></trkpt><trkpt lat="51.829337" lon="-1.948038"><ele>148.66</ele><time>2010-10-06T09:54:02Z</time></trkpt><trkpt lat="51.829305" lon="-1.948027"><ele>144.82</ele><time>2010-10-06T09:54:16Z</time></trkpt><trkpt lat="51.829278" lon="-1.947911"><ele>145.30</ele><time>2010-10-06T09:54:32Z</time></trkpt><trkpt lat="51.829290" lon="-1.947705"><ele>151.06</ele><time>2010-10-06T09:54:51Z</time></trkpt><trkpt lat="51.829300" lon="-1.947507"><ele>153.95</ele><time>2010-10-06T09:55:06Z</time></trkpt><trkpt lat="51.829236" lon="-1.947284"><ele>153.95</ele><time>2010-10-06T09:55:22Z</time></trkpt><trkpt lat="51.829142" lon="-1.947133"><ele>154.91</ele><time>2010-10-06T09:55:42Z</time></trkpt><trkpt lat="51.829008" lon="-1.946995"><ele>163.56</ele><time>2010-10-06T09:56:00Z</time></trkpt><trkpt lat="51.828996" lon="-1.946950"><ele>168.37</ele><time>2010-10-06T09:56:19Z</time></trkpt><trkpt lat="51.828889" lon="-1.946788"><ele>169.81</ele><time>2010-10-06T09:56:34Z</time></trkpt><trkpt lat="51.828855" lon="-1.946681"><ele>170.29</ele><time>2010-10-06T09:56:54Z</time></trkpt><trkpt lat="51.828779" lon="-1.946516"><ele>171.73</ele><time>2010-10-06T09:57:11Z</time></trkpt><trkpt lat="51.828759" lon="-1.946266"><ele>175.58</ele><time>2010-10-06T09:57:30Z</time></trkpt><trkpt lat="51.828747" lon="-1.946203"><ele>175.58</ele><time>2010-10-06T09:57:34Z</time></trkpt><trkpt lat="51.828685" lon="-1.945956"><ele>177.50</ele><time>2010-10-06T09:57:52Z</time></trkpt><trkpt lat="51.828683" lon="-1.945873"><ele>176.54</ele><time>2010-10-06T09:57:57Z</time></trkpt><trkpt lat="51.828646" lon="-1.945766"><ele>176.54</ele><time>2010-10-06T09:58:02Z</time></trkpt><trkpt lat="51.828602" lon="-1.945671"><ele>175.10</ele><time>2010-10-06T09:58:07Z</time></trkpt><trkpt lat="51.828462" lon="-1.945574"><ele>177.98</ele><time>2010-10-06T09:58:22Z</time></trkpt><trkpt lat="51.828437" lon="-1.945563"><ele>179.42</ele><time>2010-10-06T09:58:38Z</time></trkpt><trkpt lat="51.828406" lon="-1.945620"><ele>175.58</ele><time>2010-10-06T09:59:58Z</time></trkpt><trkpt lat="51.828459" lon="-1.945613"><ele>174.14</ele><time>2010-10-06T10:01:09Z</time></trkpt><trkpt lat="51.828435" lon="-1.945624"><ele>172.21</ele><time>2010-10-06T10:12:15Z</time></trkpt><trkpt lat="51.828529" lon="-1.945515"><ele>178.94</ele><time>2010-10-06T10:14:26Z</time></trkpt><trkpt lat="51.828463" lon="-1.945611"><ele>178.94</ele><time>2010-10-06T10:17:12Z</time></trkpt><trkpt lat="51.828443" lon="-1.945620"><ele>176.06</ele><time>2010-10-06T10:17:28Z</time></trkpt><trkpt lat="51.828354" lon="-1.945673"><ele>175.58</ele><time>2010-10-06T10:17:39Z</time></trkpt><trkpt lat="51.828253" lon="-1.945675"><ele>177.98</ele><time>2010-10-06T10:17:52Z</time></trkpt><trkpt lat="51.828141" lon="-1.945779"><ele>181.35</ele><time>2010-10-06T10:18:08Z</time></trkpt><trkpt lat="51.828033" lon="-1.945920"><ele>181.83</ele><time>2010-10-06T10:18:24Z</time></trkpt><trkpt lat="51.827900" lon="-1.946144"><ele>183.27</ele><time>2010-10-06T10:18:44Z</time></trkpt><trkpt lat="51.827812" lon="-1.946244"><ele>182.79</ele><time>2010-10-06T10:18:53Z</time></trkpt><trkpt lat="51.827706" lon="-1.946379"><ele>180.38</ele><time>2010-10-06T10:19:07Z</time></trkpt><trkpt lat="51.827634" lon="-1.946469"><ele>181.35</ele><time>2010-10-06T10:19:18Z</time></trkpt><trkpt lat="51.827552" lon="-1.946577"><ele>182.79</ele><time>2010-10-06T10:19:31Z</time></trkpt><trkpt lat="51.827486" lon="-1.946613"><ele>184.71</ele><time>2010-10-06T10:19:43Z</time></trkpt><trkpt lat="51.827464" lon="-1.946620"><ele>185.19</ele><time>2010-10-06T10:19:46Z</time></trkpt><trkpt lat="51.827399" lon="-1.946659"><ele>186.63</ele><time>2010-10-06T10:19:55Z</time></trkpt><trkpt lat="51.827341" lon="-1.946733"><ele>191.92</ele><time>2010-10-06T10:20:08Z</time></trkpt><trkpt lat="51.827252" lon="-1.946857"><ele>193.36</ele><time>2010-10-06T10:20:19Z</time></trkpt><trkpt lat="51.827230" lon="-1.946879"><ele>193.36</ele><time>2010-10-06T10:20:22Z</time></trkpt><trkpt lat="51.827130" lon="-1.947009"><ele>194.80</ele><time>2010-10-06T10:20:37Z</time></trkpt><trkpt lat="51.827123" lon="-1.947018"><ele>194.32</ele><time>2010-10-06T10:20:38Z</time></trkpt><trkpt lat="51.827105" lon="-1.947033"><ele>194.80</ele><time>2010-10-06T10:20:40Z</time></trkpt><trkpt lat="51.827048" lon="-1.947068"><ele>194.80</ele><time>2010-10-06T10:20:46Z</time></trkpt><trkpt lat="51.826943" lon="-1.947130"><ele>195.28</ele><time>2010-10-06T10:20:58Z</time></trkpt><trkpt lat="51.826854" lon="-1.947184"><ele>199.13</ele><time>2010-10-06T10:21:13Z</time></trkpt><trkpt lat="51.826683" lon="-1.947210"><ele>203.46</ele><time>2010-10-06T10:21:31Z</time></trkpt><trkpt lat="51.826546" lon="-1.947255"><ele>203.94</ele><time>2010-10-06T10:21:45Z</time></trkpt><trkpt lat="51.826488" lon="-1.947277"><ele>204.42</ele><time>2010-10-06T10:21:51Z</time></trkpt><trkpt lat="51.826404" lon="-1.947334"><ele>204.90</ele><time>2010-10-06T10:21:59Z</time></trkpt><trkpt lat="51.826362" lon="-1.947338"><ele>205.38</ele><time>2010-10-06T10:22:03Z</time></trkpt><trkpt lat="51.826238" lon="-1.947363"><ele>205.86</ele><time>2010-10-06T10:22:14Z</time></trkpt><trkpt lat="51.826091" lon="-1.947389"><ele>206.34</ele><time>2010-10-06T10:22:28Z</time></trkpt><trkpt lat="51.825930" lon="-1.947440"><ele>202.49</ele><time>2010-10-06T10:22:45Z</time></trkpt><trkpt lat="51.825760" lon="-1.947481"><ele>204.42</ele><time>2010-10-06T10:23:03Z</time></trkpt><trkpt lat="51.825609" lon="-1.947516"><ele>208.26</ele><time>2010-10-06T10:23:18Z</time></trkpt><trkpt lat="51.825495" lon="-1.947567"><ele>211.15</ele><time>2010-10-06T10:23:31Z</time></trkpt><trkpt lat="51.825375" lon="-1.947584"><ele>212.59</ele><time>2010-10-06T10:23:41Z</time></trkpt><trkpt lat="51.825237" lon="-1.947614"><ele>216.43</ele><time>2010-10-06T10:23:54Z</time></trkpt><trkpt lat="51.825209" lon="-1.947626"><ele>217.40</ele><time>2010-10-06T10:23:57Z</time></trkpt><trkpt lat="51.825099" lon="-1.947639"><ele>217.88</ele><time>2010-10-06T10:24:08Z</time></trkpt><trkpt lat="51.824950" lon="-1.947677"><ele>216.91</ele><time>2010-10-06T10:24:22Z</time></trkpt><trkpt lat="51.824825" lon="-1.947658"><ele>219.32</ele><time>2010-10-06T10:24:36Z</time></trkpt><trkpt lat="51.824835" lon="-1.947793"><ele>218.84</ele><time>2010-10-06T10:24:52Z</time></trkpt><trkpt lat="51.824813" lon="-1.947916"><ele>217.88</ele><time>2010-10-06T10:25:04Z</time></trkpt><trkpt lat="51.824775" lon="-1.948054"><ele>218.36</ele><time>2010-10-06T10:25:17Z</time></trkpt><trkpt lat="51.824762" lon="-1.948175"><ele>217.40</ele><time>2010-10-06T10:25:26Z</time></trkpt><trkpt lat="51.824668" lon="-1.948312"><ele>216.43</ele><time>2010-10-06T10:25:37Z</time></trkpt><trkpt lat="51.824554" lon="-1.948386"><ele>218.36</ele><time>2010-10-06T10:25:50Z</time></trkpt><trkpt lat="51.824526" lon="-1.948478"><ele>218.84</ele><time>2010-10-06T10:26:08Z</time></trkpt><trkpt lat="51.824431" lon="-1.948627"><ele>220.76</ele><time>2010-10-06T10:26:23Z</time></trkpt><trkpt lat="51.824384" lon="-1.948785"><ele>220.76</ele><time>2010-10-06T10:26:37Z</time></trkpt><trkpt lat="51.824356" lon="-1.949025"><ele>219.32</ele><time>2010-10-06T10:26:51Z</time></trkpt><trkpt lat="51.824348" lon="-1.949038"><ele>218.84</ele><time>2010-10-06T10:26:52Z</time></trkpt><trkpt lat="51.824326" lon="-1.949059"><ele>218.36</ele><time>2010-10-06T10:26:54Z</time></trkpt><trkpt lat="51.824284" lon="-1.949105"><ele>217.40</ele><time>2010-10-06T10:26:58Z</time></trkpt><trkpt lat="51.824204" lon="-1.949261"><ele>214.51</ele><time>2010-10-06T10:27:10Z</time></trkpt><trkpt lat="51.824102" lon="-1.949438"><ele>214.03</ele><time>2010-10-06T10:27:22Z</time></trkpt><trkpt lat="51.824037" lon="-1.949599"><ele>214.99</ele><time>2010-10-06T10:27:35Z</time></trkpt><trkpt lat="51.823969" lon="-1.949772"><ele>215.47</ele><time>2010-10-06T10:27:50Z</time></trkpt><trkpt lat="51.823871" lon="-1.949913"><ele>215.95</ele><time>2010-10-06T10:28:03Z</time></trkpt><trkpt lat="51.823803" lon="-1.950080"><ele>215.47</ele><time>2010-10-06T10:28:17Z</time></trkpt><trkpt lat="51.823723" lon="-1.950240"><ele>216.91</ele><time>2010-10-06T10:28:32Z</time></trkpt><trkpt lat="51.823720" lon="-1.950457"><ele>218.36</ele><time>2010-10-06T10:28:49Z</time></trkpt><trkpt lat="51.823777" lon="-1.950621"><ele>217.40</ele><time>2010-10-06T10:29:06Z</time></trkpt><trkpt lat="51.823915" lon="-1.950694"><ele>216.43</ele><time>2010-10-06T10:29:44Z</time></trkpt><trkpt lat="51.823777" lon="-1.950623"><ele>217.40</ele><time>2010-10-06T10:30:04Z</time></trkpt><trkpt lat="51.823746" lon="-1.950671"><ele>217.40</ele><time>2010-10-06T10:30:10Z</time></trkpt><trkpt lat="51.823730" lon="-1.950709"><ele>216.91</ele><time>2010-10-06T10:30:13Z</time></trkpt><trkpt lat="51.823730" lon="-1.950842"><ele>214.51</ele><time>2010-10-06T10:30:29Z</time></trkpt><trkpt lat="51.823685" lon="-1.950981"><ele>215.47</ele><time>2010-10-06T10:31:02Z</time></trkpt><trkpt lat="51.823606" lon="-1.951051"><ele>217.40</ele><time>2010-10-06T10:31:11Z</time></trkpt><trkpt lat="51.823577" lon="-1.951090"><ele>216.91</ele><time>2010-10-06T10:31:14Z</time></trkpt><trkpt lat="51.823530" lon="-1.951208"><ele>216.91</ele><time>2010-10-06T10:31:21Z</time></trkpt><trkpt lat="51.823439" lon="-1.951503"><ele>220.76</ele><time>2010-10-06T10:31:37Z</time></trkpt><trkpt lat="51.823379" lon="-1.951592"><ele>222.68</ele><time>2010-10-06T10:31:43Z</time></trkpt><trkpt lat="51.823363" lon="-1.951627"><ele>223.16</ele><time>2010-10-06T10:31:45Z</time></trkpt><trkpt lat="51.823338" lon="-1.951835"><ele>223.64</ele><time>2010-10-06T10:31:54Z</time></trkpt><trkpt lat="51.823317" lon="-1.951954"><ele>223.16</ele><time>2010-10-06T10:32:00Z</time></trkpt><trkpt lat="51.823261" lon="-1.952054"><ele>223.16</ele><time>2010-10-06T10:32:07Z</time></trkpt><trkpt lat="51.823241" lon="-1.952103"><ele>223.64</ele><time>2010-10-06T10:32:10Z</time></trkpt><trkpt lat="51.823199" lon="-1.952224"><ele>220.76</ele><time>2010-10-06T10:32:16Z</time></trkpt><trkpt lat="51.823116" lon="-1.952426"><ele>221.72</ele><time>2010-10-06T10:32:26Z</time></trkpt><trkpt lat="51.823086" lon="-1.952499"><ele>222.20</ele><time>2010-10-06T10:32:31Z</time></trkpt><trkpt lat="51.823080" lon="-1.952523"><ele>222.20</ele><time>2010-10-06T10:32:33Z</time></trkpt><trkpt lat="51.823069" lon="-1.952566"><ele>223.16</ele><time>2010-10-06T10:32:36Z</time></trkpt><trkpt lat="51.823019" lon="-1.952674"><ele>223.64</ele><time>2010-10-06T10:32:44Z</time></trkpt><trkpt lat="51.822904" lon="-1.952942"><ele>227.01</ele><time>2010-10-06T10:33:00Z</time></trkpt><trkpt lat="51.822818" lon="-1.953069"><ele>227.97</ele><time>2010-10-06T10:33:09Z</time></trkpt><trkpt lat="51.822710" lon="-1.953298"><ele>226.53</ele><time>2010-10-06T10:33:25Z</time></trkpt><trkpt lat="51.822575" lon="-1.953423"><ele>227.97</ele><time>2010-10-06T10:33:38Z</time></trkpt><trkpt lat="51.822458" lon="-1.953600"><ele>223.64</ele><time>2010-10-06T10:33:50Z</time></trkpt><trkpt lat="51.822308" lon="-1.953751"><ele>223.16</ele><time>2010-10-06T10:34:06Z</time></trkpt><trkpt lat="51.822152" lon="-1.953906"><ele>226.05</ele><time>2010-10-06T10:34:26Z</time></trkpt><trkpt lat="51.822014" lon="-1.953950"><ele>228.93</ele><time>2010-10-06T10:34:46Z</time></trkpt><trkpt lat="51.821901" lon="-1.953909"><ele>234.70</ele><time>2010-10-06T10:35:06Z</time></trkpt><trkpt lat="51.821860" lon="-1.953902"><ele>235.18</ele><time>2010-10-06T10:35:10Z</time></trkpt><trkpt lat="51.821653" lon="-1.953910"><ele>237.10</ele><time>2010-10-06T10:35:30Z</time></trkpt><trkpt lat="51.821475" lon="-1.953936"><ele>237.10</ele><time>2010-10-06T10:35:51Z</time></trkpt><trkpt lat="51.821343" lon="-1.953965"><ele>234.22</ele><time>2010-10-06T10:36:04Z</time></trkpt><trkpt lat="51.821216" lon="-1.954078"><ele>232.78</ele><time>2010-10-06T10:36:18Z</time></trkpt><trkpt lat="51.821220" lon="-1.954102"><ele>231.81</ele><time>2010-10-06T10:36:31Z</time></trkpt><trkpt lat="51.821244" lon="-1.954157"><ele>234.70</ele><time>2010-10-06T10:37:00Z</time></trkpt><trkpt lat="51.821250" lon="-1.954177"><ele>234.70</ele><time>2010-10-06T10:37:43Z</time></trkpt><trkpt lat="51.821269" lon="-1.954219"><ele>232.30</ele><time>2010-10-06T10:38:20Z</time></trkpt><trkpt lat="51.821246" lon="-1.954194"><ele>231.81</ele><time>2010-10-06T10:38:39Z</time></trkpt><trkpt lat="51.821223" lon="-1.954326"><ele>231.81</ele><time>2010-10-06T10:38:48Z</time></trkpt><trkpt lat="51.821233" lon="-1.954463"><ele>231.33</ele><time>2010-10-06T10:38:55Z</time></trkpt><trkpt lat="51.821244" lon="-1.954739"><ele>228.93</ele><time>2010-10-06T10:39:10Z</time></trkpt><trkpt lat="51.821222" lon="-1.954995"><ele>227.97</ele><time>2010-10-06T10:39:27Z</time></trkpt><trkpt lat="51.821215" lon="-1.955264"><ele>227.49</ele><time>2010-10-06T10:39:43Z</time></trkpt><trkpt lat="51.821236" lon="-1.955551"><ele>228.45</ele><time>2010-10-06T10:39:58Z</time></trkpt><trkpt lat="51.821254" lon="-1.955910"><ele>232.30</ele><time>2010-10-06T10:40:19Z</time></trkpt><trkpt lat="51.821214" lon="-1.956171"><ele>234.70</ele><time>2010-10-06T10:40:35Z</time></trkpt><trkpt lat="51.821127" lon="-1.956369"><ele>235.66</ele><time>2010-10-06T10:40:45Z</time></trkpt><trkpt lat="51.821087" lon="-1.956595"><ele>235.18</ele><time>2010-10-06T10:40:55Z</time></trkpt><trkpt lat="51.821053" lon="-1.956687"><ele>236.14</ele><time>2010-10-06T10:41:00Z</time></trkpt><trkpt lat="51.821038" lon="-1.956808"><ele>236.62</ele><time>2010-10-06T10:41:12Z</time></trkpt><trkpt lat="51.821064" lon="-1.956848"><ele>239.02</ele><time>2010-10-06T10:41:43Z</time></trkpt><trkpt lat="51.821008" lon="-1.956993"><ele>235.66</ele><time>2010-10-06T10:42:44Z</time></trkpt><trkpt lat="51.820955" lon="-1.957226"><ele>230.37</ele><time>2010-10-06T10:42:56Z</time></trkpt><trkpt lat="51.820941" lon="-1.957253"><ele>229.41</ele><time>2010-10-06T10:42:58Z</time></trkpt><trkpt lat="51.820918" lon="-1.957303"><ele>227.49</ele><time>2010-10-06T10:43:01Z</time></trkpt><trkpt lat="51.820887" lon="-1.957435"><ele>226.53</ele><time>2010-10-06T10:43:07Z</time></trkpt><trkpt lat="51.820851" lon="-1.957849"><ele>226.05</ele><time>2010-10-06T10:43:24Z</time></trkpt><trkpt lat="51.820856" lon="-1.957985"><ele>225.57</ele><time>2010-10-06T10:43:30Z</time></trkpt><trkpt lat="51.820859" lon="-1.958141"><ele>224.61</ele><time>2010-10-06T10:43:37Z</time></trkpt><trkpt lat="51.820852" lon="-1.958234"><ele>225.57</ele><time>2010-10-06T10:43:41Z</time></trkpt><trkpt lat="51.820806" lon="-1.958506"><ele>226.05</ele><time>2010-10-06T10:43:54Z</time></trkpt><trkpt lat="51.820770" lon="-1.958851"><ele>228.93</ele><time>2010-10-06T10:44:10Z</time></trkpt><trkpt lat="51.820762" lon="-1.958909"><ele>229.89</ele><time>2010-10-06T10:44:13Z</time></trkpt><trkpt lat="51.820746" lon="-1.959039"><ele>229.89</ele><time>2010-10-06T10:44:19Z</time></trkpt><trkpt lat="51.820717" lon="-1.959376"><ele>231.33</ele><time>2010-10-06T10:44:36Z</time></trkpt><trkpt lat="51.820669" lon="-1.959613"><ele>231.81</ele><time>2010-10-06T10:44:51Z</time></trkpt><trkpt lat="51.820653" lon="-1.959621"><ele>232.30</ele><time>2010-10-06T10:45:07Z</time></trkpt><trkpt lat="51.820617" lon="-1.959783"><ele>229.41</ele><time>2010-10-06T10:45:22Z</time></trkpt><trkpt lat="51.820626" lon="-1.959794"><ele>228.45</ele><time>2010-10-06T10:45:30Z</time></trkpt><trkpt lat="51.820661" lon="-1.959948"><ele>231.33</ele><time>2010-10-06T10:45:38Z</time></trkpt><trkpt lat="51.820716" lon="-1.960064"><ele>233.26</ele><time>2010-10-06T10:45:44Z</time></trkpt><trkpt lat="51.820771" lon="-1.960272"><ele>233.74</ele><time>2010-10-06T10:45:57Z</time></trkpt><trkpt lat="51.820793" lon="-1.960342"><ele>234.70</ele><time>2010-10-06T10:46:01Z</time></trkpt><trkpt lat="51.820841" lon="-1.960673"><ele>235.66</ele><time>2010-10-06T10:46:19Z</time></trkpt><trkpt lat="51.820928" lon="-1.960972"><ele>236.62</ele><time>2010-10-06T10:46:36Z</time></trkpt><trkpt lat="51.820997" lon="-1.961157"><ele>237.10</ele><time>2010-10-06T10:46:47Z</time></trkpt><trkpt lat="51.821031" lon="-1.961139"><ele>237.10</ele><time>2010-10-06T10:46:52Z</time></trkpt><trkpt lat="51.821027" lon="-1.961183"><ele>237.10</ele><time>2010-10-06T10:46:56Z</time></trkpt><trkpt lat="51.821089" lon="-1.961483"><ele>237.10</ele><time>2010-10-06T10:47:12Z</time></trkpt><trkpt lat="51.821160" lon="-1.961789"><ele>237.58</ele><time>2010-10-06T10:47:30Z</time></trkpt><trkpt lat="51.821293" lon="-1.962093"><ele>238.54</ele><time>2010-10-06T10:47:48Z</time></trkpt><trkpt lat="51.821407" lon="-1.962350"><ele>239.99</ele><time>2010-10-06T10:48:05Z</time></trkpt><trkpt lat="51.821524" lon="-1.962662"><ele>239.02</ele><time>2010-10-06T10:48:25Z</time></trkpt><trkpt lat="51.821613" lon="-1.962938"><ele>240.95</ele><time>2010-10-06T10:48:42Z</time></trkpt><trkpt lat="51.821676" lon="-1.963177"><ele>241.43</ele><time>2010-10-06T10:48:56Z</time></trkpt><trkpt lat="51.821749" lon="-1.963430"><ele>240.95</ele><time>2010-10-06T10:49:11Z</time></trkpt><trkpt lat="51.821787" lon="-1.963523"><ele>240.47</ele><time>2010-10-06T10:49:16Z</time></trkpt><trkpt lat="51.821839" lon="-1.963707"><ele>237.58</ele><time>2010-10-06T10:49:27Z</time></trkpt><trkpt lat="51.821902" lon="-1.963870"><ele>235.66</ele><time>2010-10-06T10:49:39Z</time></trkpt><trkpt lat="51.822027" lon="-1.964041"><ele>231.33</ele><time>2010-10-06T10:49:55Z</time></trkpt><trkpt lat="51.822091" lon="-1.964218"><ele>237.10</ele><time>2010-10-06T10:50:06Z</time></trkpt><trkpt lat="51.822094" lon="-1.964286"><ele>238.54</ele><time>2010-10-06T10:50:09Z</time></trkpt><trkpt lat="51.822128" lon="-1.964407"><ele>239.02</ele><time>2010-10-06T10:50:16Z</time></trkpt><trkpt lat="51.822148" lon="-1.964574"><ele>238.54</ele><time>2010-10-06T10:50:30Z</time></trkpt><trkpt lat="51.822192" lon="-1.964586"><ele>237.10</ele><time>2010-10-06T10:50:50Z</time></trkpt><trkpt lat="51.822322" lon="-1.964761"><ele>247.68</ele><time>2010-10-06T10:53:12Z</time></trkpt><trkpt lat="51.822359" lon="-1.964855"><ele>251.04</ele><time>2010-10-06T10:53:23Z</time></trkpt><trkpt lat="51.822363" lon="-1.964881"><ele>251.04</ele><time>2010-10-06T10:53:26Z</time></trkpt><trkpt lat="51.822392" lon="-1.965067"><ele>250.56</ele><time>2010-10-06T10:53:40Z</time></trkpt><trkpt lat="51.822433" lon="-1.965290"><ele>251.52</ele><time>2010-10-06T10:53:56Z</time></trkpt><trkpt lat="51.822438" lon="-1.965479"><ele>251.04</ele><time>2010-10-06T10:54:09Z</time></trkpt><trkpt lat="51.822459" lon="-1.965681"><ele>251.52</ele><time>2010-10-06T10:54:23Z</time></trkpt><trkpt lat="51.822488" lon="-1.965910"><ele>250.56</ele><time>2010-10-06T10:54:37Z</time></trkpt><trkpt lat="51.822548" lon="-1.966146"><ele>251.04</ele><time>2010-10-06T10:54:51Z</time></trkpt><trkpt lat="51.822616" lon="-1.966342"><ele>252.48</ele><time>2010-10-06T10:55:05Z</time></trkpt><trkpt lat="51.822674" lon="-1.966525"><ele>253.44</ele><time>2010-10-06T10:55:19Z</time></trkpt><trkpt lat="51.822718" lon="-1.966616"><ele>253.93</ele><time>2010-10-06T10:55:27Z</time></trkpt><trkpt lat="51.822762" lon="-1.966718"><ele>255.85</ele><time>2010-10-06T10:55:35Z</time></trkpt><trkpt lat="51.822774" lon="-1.966758"><ele>255.85</ele><time>2010-10-06T10:55:38Z</time></trkpt><trkpt lat="51.822798" lon="-1.966796"><ele>255.85</ele><time>2010-10-06T10:55:42Z</time></trkpt><trkpt lat="51.822823" lon="-1.966822"><ele>255.85</ele><time>2010-10-06T10:55:45Z</time></trkpt><trkpt lat="51.822927" lon="-1.967002"><ele>255.85</ele><time>2010-10-06T10:56:00Z</time></trkpt><trkpt lat="51.823018" lon="-1.967168"><ele>256.81</ele><time>2010-10-06T10:56:14Z</time></trkpt><trkpt lat="51.823088" lon="-1.967284"><ele>256.33</ele><time>2010-10-06T10:56:25Z</time></trkpt><trkpt lat="51.823148" lon="-1.967435"><ele>256.33</ele><time>2010-10-06T10:56:38Z</time></trkpt><trkpt lat="51.823234" lon="-1.967582"><ele>255.85</ele><time>2010-10-06T10:56:51Z</time></trkpt><trkpt lat="51.823269" lon="-1.967649"><ele>256.33</ele><time>2010-10-06T10:56:57Z</time></trkpt><trkpt lat="51.823336" lon="-1.967822"><ele>256.81</ele><time>2010-10-06T10:57:11Z</time></trkpt><trkpt lat="51.823371" lon="-1.967887"><ele>256.33</ele><time>2010-10-06T10:57:17Z</time></trkpt><trkpt lat="51.823378" lon="-1.967926"><ele>256.33</ele><time>2010-10-06T10:57:20Z</time></trkpt><trkpt lat="51.823427" lon="-1.968033"><ele>258.25</ele><time>2010-10-06T10:57:29Z</time></trkpt><trkpt lat="51.823500" lon="-1.968163"><ele>257.77</ele><time>2010-10-06T10:57:41Z</time></trkpt><trkpt lat="51.823513" lon="-1.968186"><ele>257.77</ele><time>2010-10-06T10:57:43Z</time></trkpt><trkpt lat="51.823597" lon="-1.968370"><ele>258.73</ele><time>2010-10-06T10:57:58Z</time></trkpt><trkpt lat="51.823663" lon="-1.968532"><ele>259.21</ele><time>2010-10-06T10:58:10Z</time></trkpt><trkpt lat="51.823736" lon="-1.968710"><ele>259.21</ele><time>2010-10-06T10:58:24Z</time></trkpt><trkpt lat="51.823807" lon="-1.968868"><ele>258.73</ele><time>2010-10-06T10:58:37Z</time></trkpt><trkpt lat="51.823847" lon="-1.968943"><ele>258.25</ele><time>2010-10-06T10:58:43Z</time></trkpt><trkpt lat="51.823862" lon="-1.968966"><ele>258.25</ele><time>2010-10-06T10:58:45Z</time></trkpt><trkpt lat="51.823970" lon="-1.969149"><ele>259.69</ele><time>2010-10-06T10:59:00Z</time></trkpt><trkpt lat="51.824019" lon="-1.969376"><ele>257.77</ele><time>2010-10-06T10:59:15Z</time></trkpt><trkpt lat="51.824074" lon="-1.969523"><ele>257.77</ele><time>2010-10-06T10:59:29Z</time></trkpt><trkpt lat="51.824111" lon="-1.969614"><ele>258.25</ele><time>2010-10-06T10:59:37Z</time></trkpt><trkpt lat="51.824189" lon="-1.969810"><ele>256.33</ele><time>2010-10-06T10:59:53Z</time></trkpt><trkpt lat="51.824235" lon="-1.970005"><ele>258.25</ele><time>2010-10-06T11:00:13Z</time></trkpt><trkpt lat="51.824314" lon="-1.970239"><ele>262.10</ele><time>2010-10-06T11:00:32Z</time></trkpt><trkpt lat="51.824347" lon="-1.970493"><ele>263.06</ele><time>2010-10-06T11:00:48Z</time></trkpt><trkpt lat="51.824433" lon="-1.970818"><ele>264.50</ele><time>2010-10-06T11:01:09Z</time></trkpt><trkpt lat="51.824527" lon="-1.971106"><ele>264.50</ele><time>2010-10-06T11:01:26Z</time></trkpt><trkpt lat="51.824591" lon="-1.971290"><ele>265.94</ele><time>2010-10-06T11:01:42Z</time></trkpt><trkpt lat="51.824641" lon="-1.971400"><ele>265.94</ele><time>2010-10-06T11:01:57Z</time></trkpt><trkpt lat="51.824765" lon="-1.971678"><ele>266.42</ele><time>2010-10-06T11:02:18Z</time></trkpt><trkpt lat="51.824814" lon="-1.971676"><ele>264.02</ele><time>2010-10-06T11:02:39Z</time></trkpt><trkpt lat="51.824874" lon="-1.971622"><ele>261.14</ele><time>2010-10-06T11:02:56Z</time></trkpt><trkpt lat="51.824956" lon="-1.971673"><ele>260.17</ele><time>2010-10-06T11:03:42Z</time></trkpt><trkpt lat="51.825027" lon="-1.971834"><ele>257.77</ele><time>2010-10-06T11:03:59Z</time></trkpt><trkpt lat="51.825203" lon="-1.972030"><ele>256.81</ele><time>2010-10-06T11:04:17Z</time></trkpt><trkpt lat="51.825314" lon="-1.972088"><ele>257.29</ele><time>2010-10-06T11:04:26Z</time></trkpt><trkpt lat="51.825528" lon="-1.972093"><ele>259.69</ele><time>2010-10-06T11:04:40Z</time></trkpt><trkpt lat="51.825631" lon="-1.972032"><ele>262.10</ele><time>2010-10-06T11:04:59Z</time></trkpt><trkpt lat="51.825696" lon="-1.972087"><ele>262.10</ele><time>2010-10-06T11:05:08Z</time></trkpt><trkpt lat="51.825773" lon="-1.972157"><ele>263.54</ele><time>2010-10-06T11:05:15Z</time></trkpt><trkpt lat="51.825889" lon="-1.972261"><ele>266.42</ele><time>2010-10-06T11:05:28Z</time></trkpt><trkpt lat="51.826031" lon="-1.972418"><ele>268.83</ele><time>2010-10-06T11:05:47Z</time></trkpt><trkpt lat="51.826063" lon="-1.972438"><ele>269.79</ele><time>2010-10-06T11:05:50Z</time></trkpt><trkpt lat="51.826300" lon="-1.972441"><ele>268.83</ele><time>2010-10-06T11:06:11Z</time></trkpt><trkpt lat="51.826380" lon="-1.972392"><ele>267.86</ele><time>2010-10-06T11:06:21Z</time></trkpt><trkpt lat="51.826663" lon="-1.972340"><ele>261.14</ele><time>2010-10-06T11:06:44Z</time></trkpt><trkpt lat="51.826830" lon="-1.972319"><ele>253.44</ele><time>2010-10-06T11:07:04Z</time></trkpt><trkpt lat="51.827068" lon="-1.972262"><ele>248.16</ele><time>2010-10-06T11:07:25Z</time></trkpt><trkpt lat="51.827155" lon="-1.972239"><ele>246.23</ele><time>2010-10-06T11:07:39Z</time></trkpt><trkpt lat="51.827373" lon="-1.972209"><ele>239.51</ele><time>2010-10-06T11:08:11Z</time></trkpt><trkpt lat="51.827527" lon="-1.972229"><ele>236.62</ele><time>2010-10-06T11:08:27Z</time></trkpt><trkpt lat="51.827660" lon="-1.972262"><ele>238.06</ele><time>2010-10-06T11:08:40Z</time></trkpt><trkpt lat="51.827766" lon="-1.972281"><ele>235.66</ele><time>2010-10-06T11:08:51Z</time></trkpt><trkpt lat="51.827865" lon="-1.972358"><ele>227.49</ele><time>2010-10-06T11:09:06Z</time></trkpt><trkpt lat="51.827950" lon="-1.972384"><ele>226.53</ele><time>2010-10-06T11:09:15Z</time></trkpt><trkpt lat="51.828081" lon="-1.972432"><ele>227.49</ele><time>2010-10-06T11:09:30Z</time></trkpt><trkpt lat="51.828240" lon="-1.972456"><ele>229.41</ele><time>2010-10-06T11:09:46Z</time></trkpt><trkpt lat="51.828307" lon="-1.972488"><ele>229.89</ele><time>2010-10-06T11:09:52Z</time></trkpt><trkpt lat="51.828474" lon="-1.972549"><ele>228.45</ele><time>2010-10-06T11:10:09Z</time></trkpt><trkpt lat="51.828482" lon="-1.972554"><ele>227.97</ele><time>2010-10-06T11:10:10Z</time></trkpt><trkpt lat="51.828595" lon="-1.972584"><ele>227.01</ele><time>2010-10-06T11:10:22Z</time></trkpt><trkpt lat="51.828779" lon="-1.972678"><ele>223.64</ele><time>2010-10-06T11:10:43Z</time></trkpt><trkpt lat="51.828873" lon="-1.972727"><ele>223.16</ele><time>2010-10-06T11:10:56Z</time></trkpt><trkpt lat="51.828942" lon="-1.972751"><ele>223.64</ele><time>2010-10-06T11:11:13Z</time></trkpt><trkpt lat="51.829019" lon="-1.972675"><ele>218.84</ele><time>2010-10-06T11:11:26Z</time></trkpt><trkpt lat="51.829008" lon="-1.972691"><ele>219.32</ele><time>2010-10-06T11:11:35Z</time></trkpt><trkpt lat="51.829035" lon="-1.972313"><ele>222.68</ele><time>2010-10-06T11:11:54Z</time></trkpt><trkpt lat="51.829079" lon="-1.972153"><ele>224.61</ele><time>2010-10-06T11:12:05Z</time></trkpt><trkpt lat="51.829093" lon="-1.972092"><ele>224.61</ele><time>2010-10-06T11:12:09Z</time></trkpt><trkpt lat="51.829124" lon="-1.971861"><ele>225.09</ele><time>2010-10-06T11:12:25Z</time></trkpt><trkpt lat="51.829147" lon="-1.971780"><ele>226.05</ele><time>2010-10-06T11:12:31Z</time></trkpt><trkpt lat="51.829245" lon="-1.971605"><ele>227.97</ele><time>2010-10-06T11:12:49Z</time></trkpt><trkpt lat="51.829238" lon="-1.971584"><ele>227.97</ele><time>2010-10-06T11:13:09Z</time></trkpt><trkpt lat="51.829267" lon="-1.971426"><ele>227.97</ele><time>2010-10-06T11:13:25Z</time></trkpt><trkpt lat="51.829272" lon="-1.971377"><ele>229.89</ele><time>2010-10-06T11:13:40Z</time></trkpt><trkpt lat="51.829265" lon="-1.971383"><ele>230.85</ele><time>2010-10-06T11:14:04Z</time></trkpt><trkpt lat="51.829254" lon="-1.971358"><ele>229.41</ele><time>2010-10-06T11:14:20Z</time></trkpt><trkpt lat="51.829249" lon="-1.971334"><ele>227.97</ele><time>2010-10-06T11:14:46Z</time></trkpt><trkpt lat="51.829296" lon="-1.971210"><ele>229.41</ele><time>2010-10-06T11:15:06Z</time></trkpt><trkpt lat="51.829299" lon="-1.971193"><ele>229.41</ele><time>2010-10-06T11:15:07Z</time></trkpt><trkpt lat="51.829386" lon="-1.970894"><ele>230.85</ele><time>2010-10-06T11:15:26Z</time></trkpt><trkpt lat="51.829479" lon="-1.970644"><ele>232.30</ele><time>2010-10-06T11:15:43Z</time></trkpt><trkpt lat="51.829571" lon="-1.970398"><ele>233.74</ele><time>2010-10-06T11:16:00Z</time></trkpt><trkpt lat="51.829597" lon="-1.970267"><ele>233.26</ele><time>2010-10-06T11:16:10Z</time></trkpt><trkpt lat="51.829763" lon="-1.970068"><ele>233.74</ele><time>2010-10-06T11:16:29Z</time></trkpt><trkpt lat="51.829926" lon="-1.969874"><ele>235.66</ele><time>2010-10-06T11:16:47Z</time></trkpt><trkpt lat="51.830065" lon="-1.969726"><ele>236.14</ele><time>2010-10-06T11:17:04Z</time></trkpt><trkpt lat="51.830203" lon="-1.969559"><ele>236.62</ele><time>2010-10-06T11:17:21Z</time></trkpt><trkpt lat="51.830326" lon="-1.969429"><ele>237.58</ele><time>2010-10-06T11:17:36Z</time></trkpt><trkpt lat="51.830446" lon="-1.969280"><ele>238.54</ele><time>2010-10-06T11:17:51Z</time></trkpt><trkpt lat="51.830575" lon="-1.969093"><ele>239.02</ele><time>2010-10-06T11:18:08Z</time></trkpt><trkpt lat="51.830686" lon="-1.968905"><ele>239.51</ele><time>2010-10-06T11:18:24Z</time></trkpt><trkpt lat="51.830799" lon="-1.968707"><ele>239.02</ele><time>2010-10-06T11:18:40Z</time></trkpt><trkpt lat="51.830829" lon="-1.968647"><ele>239.51</ele><time>2010-10-06T11:18:45Z</time></trkpt><trkpt lat="51.830862" lon="-1.968519"><ele>240.95</ele><time>2010-10-06T11:18:54Z</time></trkpt><trkpt lat="51.830904" lon="-1.968394"><ele>241.43</ele><time>2010-10-06T11:19:11Z</time></trkpt><trkpt lat="51.831015" lon="-1.968251"><ele>241.43</ele><time>2010-10-06T11:19:26Z</time></trkpt><trkpt lat="51.831143" lon="-1.968089"><ele>241.91</ele><time>2010-10-06T11:19:42Z</time></trkpt><trkpt lat="51.831276" lon="-1.967860"><ele>241.91</ele><time>2010-10-06T11:20:00Z</time></trkpt><trkpt lat="51.831404" lon="-1.967679"><ele>242.39</ele><time>2010-10-06T11:20:17Z</time></trkpt><trkpt lat="51.831496" lon="-1.967517"><ele>242.87</ele><time>2010-10-06T11:20:31Z</time></trkpt><trkpt lat="51.831599" lon="-1.967340"><ele>243.35</ele><time>2010-10-06T11:20:46Z</time></trkpt><trkpt lat="51.831706" lon="-1.967120"><ele>244.31</ele><time>2010-10-06T11:21:03Z</time></trkpt><trkpt lat="51.831718" lon="-1.967096"><ele>244.31</ele><time>2010-10-06T11:21:05Z</time></trkpt><trkpt lat="51.831731" lon="-1.967040"><ele>244.31</ele><time>2010-10-06T11:21:10Z</time></trkpt><trkpt lat="51.831721" lon="-1.967004"><ele>245.75</ele><time>2010-10-06T11:21:26Z</time></trkpt><trkpt lat="51.831801" lon="-1.966953"><ele>245.27</ele><time>2010-10-06T11:21:49Z</time></trkpt><trkpt lat="51.831943" lon="-1.966873"><ele>245.75</ele><time>2010-10-06T11:22:05Z</time></trkpt><trkpt lat="51.832021" lon="-1.966861"><ele>246.23</ele><time>2010-10-06T11:22:21Z</time></trkpt><trkpt lat="51.832080" lon="-1.966833"><ele>245.27</ele><time>2010-10-06T11:22:34Z</time></trkpt><trkpt lat="51.832099" lon="-1.966817"><ele>245.27</ele><time>2010-10-06T11:22:36Z</time></trkpt><trkpt lat="51.832235" lon="-1.966599"><ele>244.31</ele><time>2010-10-06T11:22:56Z</time></trkpt><trkpt lat="51.832252" lon="-1.966576"><ele>243.83</ele><time>2010-10-06T11:22:59Z</time></trkpt><trkpt lat="51.832280" lon="-1.966581"><ele>241.91</ele><time>2010-10-06T11:23:03Z</time></trkpt><trkpt lat="51.832442" lon="-1.966729"><ele>240.47</ele><time>2010-10-06T11:23:24Z</time></trkpt><trkpt lat="51.832583" lon="-1.966747"><ele>235.18</ele><time>2010-10-06T11:23:43Z</time></trkpt><trkpt lat="51.832659" lon="-1.966570"><ele>228.93</ele><time>2010-10-06T11:24:03Z</time></trkpt><trkpt lat="51.832675" lon="-1.966453"><ele>227.97</ele><time>2010-10-06T11:24:14Z</time></trkpt><trkpt lat="51.832704" lon="-1.966204"><ele>227.97</ele><time>2010-10-06T11:24:33Z</time></trkpt><trkpt lat="51.832704" lon="-1.966199"><ele>229.41</ele><time>2010-10-06T11:24:56Z</time></trkpt><trkpt lat="51.832714" lon="-1.966208"><ele>229.41</ele><time>2010-10-06T11:25:14Z</time></trkpt><trkpt lat="51.832921" lon="-1.966184"><ele>232.30</ele><time>2010-10-06T11:25:32Z</time></trkpt><trkpt lat="51.833061" lon="-1.966179"><ele>234.70</ele><time>2010-10-06T11:25:46Z</time></trkpt><trkpt lat="51.833118" lon="-1.966162"><ele>236.14</ele><time>2010-10-06T11:26:02Z</time></trkpt><trkpt lat="51.833289" lon="-1.966155"><ele>237.10</ele><time>2010-10-06T11:26:21Z</time></trkpt><trkpt lat="51.833296" lon="-1.966132"><ele>236.62</ele><time>2010-10-06T11:26:23Z</time></trkpt><trkpt lat="51.833283" lon="-1.966009"><ele>235.18</ele><time>2010-10-06T11:26:30Z</time></trkpt><trkpt lat="51.833222" lon="-1.965885"><ele>229.89</ele><time>2010-10-06T11:26:38Z</time></trkpt><trkpt lat="51.833201" lon="-1.965711"><ele>228.93</ele><time>2010-10-06T11:26:48Z</time></trkpt><trkpt lat="51.833172" lon="-1.965342"><ele>228.93</ele><time>2010-10-06T11:27:06Z</time></trkpt><trkpt lat="51.833062" lon="-1.964896"><ele>224.61</ele><time>2010-10-06T11:27:26Z</time></trkpt><trkpt lat="51.833020" lon="-1.964763"><ele>222.20</ele><time>2010-10-06T11:27:32Z</time></trkpt><trkpt lat="51.832992" lon="-1.964661"><ele>219.32</ele><time>2010-10-06T11:27:37Z</time></trkpt><trkpt lat="51.832972" lon="-1.964489"><ele>216.91</ele><time>2010-10-06T11:27:59Z</time></trkpt><trkpt lat="51.833010" lon="-1.964431"><ele>217.88</ele><time>2010-10-06T11:28:16Z</time></trkpt><trkpt lat="51.832997" lon="-1.964311"><ele>217.88</ele><time>2010-10-06T11:28:49Z</time></trkpt><trkpt lat="51.833059" lon="-1.964108"><ele>212.11</ele><time>2010-10-06T11:29:21Z</time></trkpt><trkpt lat="51.833098" lon="-1.964067"><ele>208.74</ele><time>2010-10-06T11:29:32Z</time></trkpt><trkpt lat="51.833280" lon="-1.963843"><ele>211.15</ele><time>2010-10-06T11:29:55Z</time></trkpt><trkpt lat="51.833404" lon="-1.963687"><ele>206.82</ele><time>2010-10-06T11:30:12Z</time></trkpt><trkpt lat="51.833569" lon="-1.963479"><ele>203.94</ele><time>2010-10-06T11:30:33Z</time></trkpt><trkpt lat="51.833662" lon="-1.963330"><ele>201.05</ele><time>2010-10-06T11:30:48Z</time></trkpt><trkpt lat="51.833794" lon="-1.963112"><ele>197.69</ele><time>2010-10-06T11:31:07Z</time></trkpt><trkpt lat="51.833928" lon="-1.962879"><ele>195.77</ele><time>2010-10-06T11:31:29Z</time></trkpt><trkpt lat="51.834056" lon="-1.962637"><ele>192.88</ele><time>2010-10-06T11:31:50Z</time></trkpt><trkpt lat="51.834168" lon="-1.962421"><ele>187.59</ele><time>2010-10-06T11:32:08Z</time></trkpt><trkpt lat="51.834231" lon="-1.962126"><ele>186.15</ele><time>2010-10-06T11:32:27Z</time></trkpt><trkpt lat="51.834309" lon="-1.961712"><ele>181.83</ele><time>2010-10-06T11:32:50Z</time></trkpt><trkpt lat="51.834370" lon="-1.961402"><ele>178.46</ele><time>2010-10-06T11:33:10Z</time></trkpt><trkpt lat="51.834445" lon="-1.961080"><ele>174.62</ele><time>2010-10-06T11:33:29Z</time></trkpt><trkpt lat="51.834463" lon="-1.960932"><ele>173.66</ele><time>2010-10-06T11:33:44Z</time></trkpt><trkpt lat="51.834517" lon="-1.960804"><ele>171.73</ele><time>2010-10-06T11:34:01Z</time></trkpt><trkpt lat="51.834531" lon="-1.960765"><ele>170.77</ele><time>2010-10-06T11:34:14Z</time></trkpt><trkpt lat="51.834630" lon="-1.960550"><ele>171.25</ele><time>2010-10-06T11:34:30Z</time></trkpt><trkpt lat="51.834737" lon="-1.960352"><ele>170.77</ele><time>2010-10-06T11:34:47Z</time></trkpt><trkpt lat="51.834880" lon="-1.960106"><ele>172.21</ele><time>2010-10-06T11:35:06Z</time></trkpt><trkpt lat="51.835006" lon="-1.959878"><ele>172.69</ele><time>2010-10-06T11:35:25Z</time></trkpt><trkpt lat="51.835149" lon="-1.959714"><ele>173.17</ele><time>2010-10-06T11:35:41Z</time></trkpt><trkpt lat="51.835256" lon="-1.959584"><ele>171.73</ele><time>2010-10-06T11:35:56Z</time></trkpt><trkpt lat="51.835415" lon="-1.959453"><ele>168.85</ele><time>2010-10-06T11:36:14Z</time></trkpt><trkpt lat="51.835590" lon="-1.959301"><ele>166.93</ele><time>2010-10-06T11:36:33Z</time></trkpt><trkpt lat="51.835616" lon="-1.959273"><ele>166.93</ele><time>2010-10-06T11:36:36Z</time></trkpt><trkpt lat="51.835772" lon="-1.959148"><ele>165.00</ele><time>2010-10-06T11:36:54Z</time></trkpt><trkpt lat="51.835927" lon="-1.959025"><ele>164.04</ele><time>2010-10-06T11:37:11Z</time></trkpt><trkpt lat="51.836003" lon="-1.958944"><ele>163.56</ele><time>2010-10-06T11:37:23Z</time></trkpt><trkpt lat="51.836031" lon="-1.958917"><ele>163.56</ele><time>2010-10-06T11:37:26Z</time></trkpt><trkpt lat="51.836166" lon="-1.958812"><ele>161.64</ele><time>2010-10-06T11:37:43Z</time></trkpt><trkpt lat="51.836347" lon="-1.958657"><ele>161.64</ele><time>2010-10-06T11:38:02Z</time></trkpt><trkpt lat="51.836402" lon="-1.958626"><ele>161.16</ele><time>2010-10-06T11:38:08Z</time></trkpt><trkpt lat="51.836498" lon="-1.958525"><ele>162.12</ele><time>2010-10-06T11:38:24Z</time></trkpt><trkpt lat="51.836527" lon="-1.958465"><ele>160.68</ele><time>2010-10-06T11:38:39Z</time></trkpt><trkpt lat="51.836533" lon="-1.958408"><ele>161.16</ele><time>2010-10-06T11:38:54Z</time></trkpt><trkpt lat="51.836552" lon="-1.958371"><ele>162.12</ele><time>2010-10-06T11:39:12Z</time></trkpt><trkpt lat="51.836606" lon="-1.958334"><ele>163.08</ele><time>2010-10-06T11:39:26Z</time></trkpt><trkpt lat="51.836678" lon="-1.958264"><ele>164.04</ele><time>2010-10-06T11:39:44Z</time></trkpt><trkpt lat="51.836870" lon="-1.958181"><ele>166.93</ele><time>2010-10-06T11:40:02Z</time></trkpt><trkpt lat="51.837029" lon="-1.958128"><ele>165.00</ele><time>2010-10-06T11:40:19Z</time></trkpt><trkpt lat="51.837232" lon="-1.958061"><ele>165.00</ele><time>2010-10-06T11:40:35Z</time></trkpt><trkpt lat="51.837438" lon="-1.957909"><ele>172.21</ele><time>2010-10-06T11:40:51Z</time></trkpt><trkpt lat="51.837464" lon="-1.957868"><ele>175.10</ele><time>2010-10-06T11:40:56Z</time></trkpt><trkpt lat="51.837521" lon="-1.957714"><ele>178.46</ele><time>2010-10-06T11:41:12Z</time></trkpt><trkpt lat="51.837551" lon="-1.957654"><ele>179.42</ele><time>2010-10-06T11:41:16Z</time></trkpt><trkpt lat="51.837600" lon="-1.957507"><ele>180.38</ele><time>2010-10-06T11:41:24Z</time></trkpt><trkpt lat="51.837699" lon="-1.957353"><ele>180.87</ele><time>2010-10-06T11:41:36Z</time></trkpt><trkpt lat="51.837748" lon="-1.957234"><ele>181.83</ele><time>2010-10-06T11:41:45Z</time></trkpt><trkpt lat="51.837727" lon="-1.957157"><ele>180.87</ele><time>2010-10-06T11:41:50Z</time></trkpt><trkpt lat="51.837780" lon="-1.957049"><ele>180.38</ele><time>2010-10-06T11:42:00Z</time></trkpt><trkpt lat="51.837828" lon="-1.957002"><ele>179.90</ele><time>2010-10-06T11:42:05Z</time></trkpt><trkpt lat="51.837841" lon="-1.956920"><ele>179.90</ele><time>2010-10-06T11:42:11Z</time></trkpt><trkpt lat="51.837871" lon="-1.956843"><ele>178.46</ele><time>2010-10-06T11:42:16Z</time></trkpt><trkpt lat="51.837801" lon="-1.956577"><ele>176.06</ele><time>2010-10-06T11:42:34Z</time></trkpt><trkpt lat="51.837770" lon="-1.956347"><ele>170.77</ele><time>2010-10-06T11:42:55Z</time></trkpt><trkpt lat="51.837737" lon="-1.956139"><ele>167.41</ele><time>2010-10-06T11:43:14Z</time></trkpt><trkpt lat="51.837729" lon="-1.956130"><ele>166.93</ele><time>2010-10-06T11:43:15Z</time></trkpt><trkpt lat="51.837558" lon="-1.955930"><ele>160.68</ele><time>2010-10-06T11:43:35Z</time></trkpt><trkpt lat="51.837507" lon="-1.955839"><ele>158.75</ele><time>2010-10-06T11:43:43Z</time></trkpt><trkpt lat="51.837367" lon="-1.955570"><ele>157.79</ele><time>2010-10-06T11:43:59Z</time></trkpt><trkpt lat="51.837312" lon="-1.955466"><ele>158.27</ele><time>2010-10-06T11:44:05Z</time></trkpt><trkpt lat="51.837293" lon="-1.955398"><ele>160.20</ele><time>2010-10-06T11:44:08Z</time></trkpt><trkpt lat="51.837274" lon="-1.955341"><ele>160.20</ele><time>2010-10-06T11:44:11Z</time></trkpt><trkpt lat="51.837258" lon="-1.955311"><ele>160.20</ele><time>2010-10-06T11:44:13Z</time></trkpt><trkpt lat="51.837178" lon="-1.955246"><ele>162.12</ele><time>2010-10-06T11:44:29Z</time></trkpt><trkpt lat="51.837176" lon="-1.955254"><ele>162.60</ele><time>2010-10-06T11:44:35Z</time></trkpt><trkpt lat="51.837262" lon="-1.955171"><ele>166.93</ele><time>2010-10-06T11:44:47Z</time></trkpt><trkpt lat="51.837246" lon="-1.954914"><ele>165.00</ele><time>2010-10-06T11:45:00Z</time></trkpt><trkpt lat="51.837184" lon="-1.954689"><ele>160.20</ele><time>2010-10-06T11:45:13Z</time></trkpt><trkpt lat="51.837161" lon="-1.954507"><ele>159.24</ele><time>2010-10-06T11:45:25Z</time></trkpt><trkpt lat="51.837154" lon="-1.954484"><ele>158.75</ele><time>2010-10-06T11:45:27Z</time></trkpt></trkseg></trk></gpx>